Serene Lydia — C6YE7 — position and weather

sailwx.info

Track history (hours):
 
Tides and Currents Weather Stations Pressure Air Temp Water Temp Dewpoint Dewpoint Depression Visibility Wind Speed Wind Dir Waves Ship Positions

Serene Lydia

Last reported at 2018-Jan-30 14:38 UTC. Time now 2018-Feb-21 09:44 UTC.
Position S 28°50' E 032°13'.
Warning: this ship's position is 21 days out of date.

Length 190 m; draft 7 m.

Type: Ship. MMSI: 311030200.

Date/timePositionNaut miles runAvg speedWind from/ knotsBaromVisibWave heightAir tempDewpointWater temp
2018-Jan-30 14:38S 28°50' E 032°13'1 8.7
2018-Jan-30 14:30S 28°50' E 032°12'8 7.7
2018-Jan-30 13:30S 28°49' E 032°03'0 0.5
2018-Jan-30 12:59S 28°49' E 032°03'0 0.0
2018-Jan-30 12:26S 28°49' E 032°03'0 0.0
2018-Jan-30 11:59S 28°49' E 032°03'0 0.0
2018-Jan-30 11:20S 28°49' E 032°03'0 0.0
2018-Jan-29 10:28S 28°49' E 032°03'9 2.1
2018-Jan-29 06:13S 28°55' E 032°11'0 0.0
2018-Jan-28 05:13S 28°55' E 032°11'0 0.0
2018-Jan-28 04:55S 28°55' E 032°11'0 0.0
2018-Jan-28 03:49S 28°55' E 032°11'0 0.0
2018-Jan-28 02:37S 28°55' E 032°11'0 0.0
2018-Jan-27 18:10S 28°55' E 032°11'0 0.1
2018-Jan-27 15:55S 28°55' E 032°11'0 0.1
2018-Jan-27 15:28S 28°55' E 032°11'0 0.0
2018-Jan-27 14:37S 28°55' E 032°11'0 0.1
2018-Jan-27 14:25S 28°55' E 032°11'0 0.1
2018-Jan-27 13:55S 28°55' E 032°11'0 0.1
2018-Jan-27 13:25S 28°55' E 032°11'0 0.0
2018-Jan-27 12:13S 28°55' E 032°11'0 0.0
2018-Jan-27 11:52S 28°55' E 032°11'0 0.0
2018-Jan-27 11:19S 28°55' E 032°11'0 0.1
2018-Jan-27 10:55S 28°55' E 032°11'0 0.0
2018-Jan-26 16:49S 28°55' E 032°11'0 0.1
2018-Jan-26 16:28S 28°55' E 032°11'0 0.0
2018-Jan-26 15:55S 28°55' E 032°11'0 0.0
2018-Jan-26 15:28S 28°55' E 032°11'0 0.0
2018-Jan-26 14:58S 28°55' E 032°11'0 0.0
2018-Jan-26 14:25S 28°55' E 032°11'0 0.0
2018-Jan-26 13:58S 28°55' E 032°11'0 0.0
2018-Jan-26 13:28S 28°55' E 032°11'0 0.0
2018-Jan-26 12:55S 28°55' E 032°11'0 0.1
2018-Jan-26 12:28S 28°55' E 032°11'0 0.1
2018-Jan-26 11:58S 28°55' E 032°11'0 0.0
2018-Jan-26 11:25S 28°55' E 032°11'0 0.0
2018-Jan-26 10:49S 28°55' E 032°11'0 0.0
2018-Jan-25 12:31S 28°55' E 032°11'0 0.0
2018-Jan-25 12:22S 28°55' E 032°11'  
Track history (hours):
 
Tides and Currents Weather Stations Pressure Air Temp Water Temp Dewpoint Dewpoint Depression Visibility Wind Speed Wind Dir Waves Ship Positions

Serene Lydia

Last reported at 2018-Jan-30 14:38 UTC. Time now 2018-Feb-21 09:44 UTC.
Position S 28°50' E 032°13'.
Warning: this ship's position is 21 days out of date.

Length 190 m; draft 7 m.

Type: Ship. MMSI: 311030200.

Date/timePositionNaut miles runAvg speedWind from/ knotsBaromVisibWave heightAir tempDewpointWater temp
2018-Jan-30 14:38S 28°50' E 032°13'1 8.7
2018-Jan-30 14:30S 28°50' E 032°12'8 7.7
2018-Jan-30 13:30S 28°49' E 032°03'0 0.5
2018-Jan-30 12:59S 28°49' E 032°03'0 0.0
2018-Jan-30 12:26S 28°49' E 032°03'0 0.0
2018-Jan-30 11:59S 28°49' E 032°03'0 0.0
2018-Jan-30 11:20S 28°49' E 032°03'0 0.0
2018-Jan-29 10:28S 28°49' E 032°03'9 2.1
2018-Jan-29 06:13S 28°55' E 032°11'0 0.0
2018-Jan-28 05:13S 28°55' E 032°11'0 0.0
2018-Jan-28 04:55S 28°55' E 032°11'0 0.0
2018-Jan-28 03:49S 28°55' E 032°11'0 0.0
2018-Jan-28 02:37S 28°55' E 032°11'0 0.0
2018-Jan-27 18:10S 28°55' E 032°11'0 0.1
2018-Jan-27 15:55S 28°55' E 032°11'0 0.1
2018-Jan-27 15:28S 28°55' E 032°11'0 0.0
2018-Jan-27 14:37S 28°55' E 032°11'0 0.1
2018-Jan-27 14:25S 28°55' E 032°11'0 0.1
2018-Jan-27 13:55S 28°55' E 032°11'0 0.1
2018-Jan-27 13:25S 28°55' E 032°11'0 0.0
2018-Jan-27 12:13S 28°55' E 032°11'0 0.0
2018-Jan-27 11:52S 28°55' E 032°11'0 0.0
2018-Jan-27 11:19S 28°55' E 032°11'0 0.1
2018-Jan-27 10:55S 28°55' E 032°11'0 0.0
2018-Jan-26 16:49S 28°55' E 032°11'0 0.1
2018-Jan-26 16:28S 28°55' E 032°11'0 0.0
2018-Jan-26 15:55S 28°55' E 032°11'0 0.0
2018-Jan-26 15:28S 28°55' E 032°11'0 0.0
2018-Jan-26 14:58S 28°55' E 032°11'0 0.0
2018-Jan-26 14:25S 28°55' E 032°11'0 0.0
2018-Jan-26 13:58S 28°55' E 032°11'0 0.0
2018-Jan-26 13:28S 28°55' E 032°11'0 0.0
2018-Jan-26 12:55S 28°55' E 032°11'0 0.1
2018-Jan-26 12:28S 28°55' E 032°11'0 0.1
2018-Jan-26 11:58S 28°55' E 032°11'0 0.0
2018-Jan-26 11:25S 28°55' E 032°11'0 0.0
2018-Jan-26 10:49S 28°55' E 032°11'0 0.0
2018-Jan-25 12:31S 28°55' E 032°11'0 0.0
2018-Jan-25 12:22S 28°55' E 032°11'  

Dump ship's entire track history